createdAt,value
2023-02-19T00:01:26.521Z,3.33
2023-02-19T00:03:59.080Z,3.20
2023-02-19T00:06:27.570Z,2.70
2023-02-19T00:08:54.743Z,2.97
2023-02-19T00:11:24.784Z,2.83
2023-02-19T00:13:53.555Z,2.75
2023-02-19T00:16:23.363Z,2.75
2023-02-19T00:18:51.110Z,3.17
2023-02-19T00:21:18.970Z,2.88
2023-02-19T00:23:50.543Z,2.97
2023-02-19T00:26:18.897Z,2.60
2023-02-19T00:28:47.470Z,3.50
2023-02-19T00:31:32.221Z,3.13
2023-02-19T00:34:02.410Z,3.30
2023-02-19T00:36:30.387Z,3.60
2023-02-19T00:38:57.567Z,2.83
2023-02-19T00:41:25.233Z,2.90
2023-02-19T00:43:57.364Z,2.80
2023-02-19T00:46:28.536Z,3.17
2023-02-19T00:48:56.397Z,2.67
2023-02-19T00:51:25.794Z,2.75
2023-02-19T00:53:52.661Z,2.70
2023-02-19T00:56:19.450Z,2.65
2023-02-19T00:58:46.407Z,2.30
2023-02-19T01:01:13.186Z,2.50
2023-02-19T01:03:40.401Z,2.60
2023-02-19T01:06:08.842Z,2.33
2023-02-19T01:08:36.058Z,2.20
2023-02-19T01:11:04.265Z,2.75
2023-02-19T01:13:31.543Z,2.38
2023-02-19T01:16:07.010Z,2.58
2023-02-19T01:18:33.990Z,2.28
2023-02-19T01:21:04.626Z,2.25
2023-02-19T01:23:31.247Z,2.50
2023-02-19T01:25:57.977Z,2.75
2023-02-19T01:28:24.675Z,2.42
2023-02-19T01:30:51.410Z,2.38
2023-02-19T01:33:18.062Z,2.70
2023-02-19T01:35:44.777Z,2.38
2023-02-19T01:38:11.545Z,2.17
2023-02-19T01:40:38.198Z,2.75
2023-02-19T01:43:11.129Z,2.38
2023-02-19T01:45:42.474Z,2.15
2023-02-19T01:48:31.934Z,1.83
2023-02-19T01:51:05.519Z,2.03
2023-02-19T01:53:39.752Z,1.70
2023-02-19T01:56:08.641Z,1.52
2023-02-19T01:58:36.649Z,1.80
2023-02-19T02:01:06.150Z,1.58
2023-02-19T02:03:37.982Z,1.60
2023-02-19T02:06:16.777Z,1.45
2023-02-19T02:11:29.674Z,1.38
2023-02-19T02:13:57.813Z,1.65
2023-02-19T02:16:54.679Z,1.42
2023-02-19T02:19:24.293Z,1.50
2023-02-19T02:21:59.350Z,1.42
2023-02-19T02:24:44.812Z,1.60
2023-02-19T02:27:20.310Z,1.15
2023-02-19T02:30:11.230Z,1.00
2023-02-19T02:32:53.478Z,1.00
2023-02-19T02:35:24.887Z,1.80
2023-02-19T02:37:55.488Z,1.25
2023-02-19T02:40:22.649Z,1.40
2023-02-19T02:42:49.347Z,1.00
2023-02-19T02:45:38.097Z,1.23
2023-02-19T02:48:31.924Z,1.10
2023-02-19T02:51:19.921Z,1.00
2023-02-19T02:54:23.139Z,1.15
2023-02-19T02:56:51.093Z,1.65
2023-02-19T02:59:21.645Z,1.38
2023-02-19T03:02:10.950Z,1.25
2023-02-19T03:05:07.474Z,1.27
2023-02-19T03:07:39.430Z,1.48
2023-02-19T03:10:10.232Z,0.95
2023-02-19T03:12:59.031Z,1.67
2023-02-19T03:15:50.142Z,1.38
2023-02-19T03:18:37.323Z,1.20
2023-02-19T03:21:05.425Z,1.50
2023-02-19T03:23:53.680Z,2.10
2023-02-19T03:26:21.641Z,1.88
2023-02-19T03:29:09.960Z,1.73
2023-02-19T03:31:40.046Z,1.70
2023-02-19T03:34:12.309Z,1.85
2023-02-19T03:36:48.339Z,1.42
2023-02-19T03:39:19.940Z,1.30
2023-02-19T03:41:55.890Z,1.20
2023-02-19T03:44:53.624Z,1.25
2023-02-19T03:47:37.820Z,1.70
2023-02-19T03:50:21.707Z,1.90
2023-02-19T03:53:14.120Z,1.40
2023-02-19T03:56:00.236Z,1.60
2023-02-19T03:58:40.074Z,1.60
2023-02-19T04:01:14.958Z,1.40
2023-02-19T04:03:55.300Z,1.20
2023-02-19T04:06:27.759Z,1.27
2023-02-19T04:11:24.375Z,1.00
2023-02-19T04:14:03.694Z,1.40
2023-02-19T04:16:33.400Z,1.05
2023-02-19T04:19:07.143Z,1.00
2023-02-19T04:21:35.416Z,0.80
2023-02-19T04:24:06.895Z,0.90
2023-02-19T04:26:35.505Z,1.00
2023-02-19T04:29:02.621Z,1.00
2023-02-19T04:31:31.088Z,1.10
2023-02-19T04:33:57.860Z,1.00
2023-02-19T04:36:24.540Z,1.20
2023-02-19T04:38:51.188Z,1.23
2023-02-19T04:41:17.864Z,1.20
2023-02-19T04:43:44.544Z,1.63
2023-02-19T04:46:11.219Z,1.10
2023-02-19T04:48:37.939Z,0.70
2023-02-19T04:51:09.278Z,1.08
2023-02-19T04:53:37.338Z,0.85
2023-02-19T04:56:13.502Z,1.20
2023-02-19T04:58:41.314Z,1.25
2023-02-19T05:01:08.729Z,1.10
2023-02-19T05:03:35.775Z,1.23
2023-02-19T05:06:04.554Z,1.20
2023-02-19T05:08:31.390Z,1.10
2023-02-19T05:10:59.944Z,1.10
2023-02-19T05:13:27.448Z,1.00
2023-02-19T05:16:01.788Z,1.30
2023-02-19T05:18:29.700Z,1.70
2023-02-19T05:20:59.848Z,1.48
2023-02-19T05:23:27.917Z,2.05
2023-02-19T05:25:54.993Z,1.70
2023-02-19T05:28:28.481Z,1.77
2023-02-19T05:30:56.993Z,1.95
2023-02-19T05:33:26.064Z,2.33
2023-02-19T05:35:55.280Z,1.65
2023-02-19T05:38:23.533Z,2.15
2023-02-19T05:40:51.567Z,2.30
2023-02-19T05:43:18.925Z,2.40
2023-02-19T05:45:46.404Z,2.92
2023-02-19T05:48:13.445Z,2.65
2023-02-19T05:50:40.588Z,2.60
2023-02-19T05:53:07.356Z,2.55
2023-02-19T05:55:35.975Z,1.70
2023-02-19T05:58:03.364Z,2.50
2023-02-19T06:00:30.568Z,2.42
2023-02-19T06:02:57.971Z,2.42
2023-02-19T06:05:25.391Z,2.15
2023-02-19T06:07:52.561Z,2.22
2023-02-19T06:10:19.918Z,2.50
2023-02-19T06:12:46.919Z,2.88
2023-02-19T06:15:13.645Z,2.35
2023-02-19T06:17:40.856Z,2.35
2023-02-19T06:20:08.136Z,2.08
2023-02-19T06:22:35.482Z,2.63
2023-02-19T06:25:02.279Z,2.20
2023-02-19T06:27:29.013Z,2.17
2023-02-19T06:29:56.398Z,2.55
2023-02-19T06:32:23.316Z,2.33
2023-02-19T06:34:50.969Z,2.33
2023-02-19T06:37:17.615Z,2.13
2023-02-19T06:39:44.720Z,1.70
2023-02-19T06:42:11.449Z,1.85
2023-02-19T06:44:38.065Z,1.92
2023-02-19T06:47:04.804Z,2.10
2023-02-19T06:49:32.261Z,1.75
2023-02-19T06:52:00.518Z,2.22
2023-02-19T06:54:27.533Z,2.00
2023-02-19T06:56:54.273Z,2.15
2023-02-19T06:59:20.985Z,1.85
2023-02-19T07:01:47.709Z,1.88
2023-02-19T07:04:14.877Z,2.03
2023-02-19T07:06:42.162Z,1.92
2023-02-19T07:09:09.780Z,2.20
2023-02-19T07:11:38.961Z,2.75
2023-02-19T07:14:08.588Z,2.47
2023-02-19T07:16:36.111Z,2.05
2023-02-19T07:19:03.562Z,2.05
2023-02-19T07:21:30.473Z,2.50
2023-02-19T07:23:57.501Z,2.20
2023-02-19T07:26:24.930Z,2.25
2023-02-19T07:28:52.411Z,2.20
2023-02-19T07:31:21.311Z,2.17
2023-02-19T07:33:48.542Z,1.92
2023-02-19T07:36:17.438Z,2.17
2023-02-19T07:38:44.854Z,2.03
2023-02-19T07:41:12.009Z,1.83
2023-02-19T07:43:39.775Z,1.70
2023-02-19T07:46:09.495Z,1.83
2023-02-19T07:48:37.913Z,2.22
2023-02-19T07:51:06.413Z,1.67
2023-02-19T07:53:35.489Z,1.80
2023-02-19T07:56:07.471Z,1.60
2023-02-19T07:58:34.671Z,1.73
2023-02-19T08:01:49.543Z,1.80
2023-02-19T08:04:16.813Z,1.50
2023-02-19T08:06:43.707Z,1.70
2023-02-19T08:09:10.413Z,1.85
2023-02-19T08:11:55.555Z,1.70
2023-02-19T08:16:53.709Z,1.33
2023-02-19T08:19:20.950Z,1.48
2023-02-19T08:21:47.690Z,1.40
2023-02-19T08:24:14.410Z,1.50
2023-02-19T08:26:41.319Z,1.50
2023-02-19T08:29:08.218Z,1.58
2023-02-19T08:31:35.322Z,1.63
2023-02-19T08:34:02.072Z,2.00
2023-02-19T08:36:28.804Z,1.70
2023-02-19T08:38:55.594Z,1.90
2023-02-19T08:41:22.405Z,2.10
2023-02-19T08:43:49.393Z,1.85
2023-02-19T08:46:16.204Z,2.30
2023-02-19T08:48:42.951Z,2.25
2023-02-19T08:51:12.229Z,2.53
2023-02-19T08:53:40.547Z,2.50
2023-02-19T08:56:13.444Z,2.50
2023-02-19T08:58:41.063Z,2.28
2023-02-19T09:01:16.467Z,2.00
2023-02-19T09:03:43.584Z,1.67
2023-02-19T09:06:16.320Z,1.10
2023-02-19T09:08:44.297Z,0.80
2023-02-19T09:11:11.228Z,0.70
2023-02-19T09:13:38.120Z,0.50
2023-02-19T09:16:05.791Z,0.70
2023-02-19T09:18:33.383Z,0.60
2023-02-19T09:21:01.932Z,0.73
2023-02-19T09:23:29.180Z,0.70
2023-02-19T09:26:07.515Z,0.60
2023-02-19T09:28:34.368Z,0.80
2023-02-19T09:31:11.177Z,0.80
2023-02-19T09:33:38.534Z,0.90
2023-02-19T09:36:05.564Z,0.70
2023-02-19T09:38:32.247Z,0.82
2023-02-19T09:41:05.181Z,1.65
2023-02-19T09:43:32.595Z,0.88
2023-02-19T09:46:11.806Z,0.80
2023-02-19T09:48:38.543Z,0.73
2023-02-19T09:51:07.514Z,0.73
2023-02-19T09:53:41.759Z,0.60
2023-02-19T09:56:08.970Z,0.80
2023-02-19T09:58:57.340Z,1.17
2023-02-19T10:01:28.731Z,0.65
2023-02-19T10:03:55.521Z,0.70
2023-02-19T10:06:24.774Z,0.40
2023-02-19T10:09:26.816Z,0.73
2023-02-19T10:11:55.345Z,1.27
2023-02-19T10:14:39.956Z,0.77
2023-02-19T10:17:11.499Z,1.08
2023-02-19T10:19:38.235Z,0.85
2023-02-19T10:22:05.285Z,1.10
2023-02-19T10:24:32.235Z,0.95
2023-02-19T10:26:58.966Z,1.60
2023-02-19T10:29:27.274Z,1.95
2023-02-19T10:32:14.828Z,2.10
2023-02-19T10:34:41.616Z,0.90
2023-02-19T10:37:14.804Z,1.00
2023-02-19T10:39:52.403Z,1.70
2023-02-19T10:42:22.167Z,1.20
2023-02-19T10:44:58.472Z,1.40
2023-02-19T10:47:27.218Z,1.00
2023-02-19T10:49:57.514Z,1.17
2023-02-19T10:52:28.307Z,0.93
2023-02-19T10:55:16.633Z,0.90
2023-02-19T10:57:43.384Z,1.08
2023-02-19T11:00:16.352Z,0.70
2023-02-19T11:02:44.242Z,1.02
2023-02-19T11:05:16.791Z,0.80
2023-02-19T11:10:42.247Z,1.55
2023-02-19T11:13:16.347Z,1.00
2023-02-19T11:15:43.503Z,2.17
2023-02-19T11:18:13.208Z,2.55
2023-02-19T11:20:49.062Z,1.40
2023-02-19T11:23:19.763Z,0.63
2023-02-19T11:25:49.124Z,0.32
2023-02-19T11:28:28.018Z,0.38
2023-02-19T11:30:54.975Z,0.70
2023-02-19T11:33:27.372Z,0.60
2023-02-19T11:36:17.838Z,1.63
2023-02-19T11:38:44.613Z,1.00
2023-02-19T11:41:16.957Z,2.70
2023-02-19T11:43:53.051Z,1.67
2023-02-19T11:46:41.833Z,1.50
2023-02-19T11:49:29.132Z,1.00
2023-02-19T11:52:02.355Z,0.93
2023-02-19T11:54:54.663Z,1.10
2023-02-19T11:57:37.988Z,1.02
2023-02-19T12:00:28.374Z,1.00
2023-02-19T12:03:23.164Z,1.08
2023-02-19T12:06:12.633Z,1.02
2023-02-19T12:08:45.494Z,1.08
2023-02-19T12:11:37.706Z,1.40
2023-02-19T12:14:43.085Z,1.38
2023-02-19T12:17:26.470Z,1.20
2023-02-19T12:20:14.438Z,1.17
2023-02-19T12:23:00.717Z,1.52
2023-02-19T12:25:42.490Z,2.00
2023-02-19T12:28:18.528Z,1.85
2023-02-19T12:30:48.786Z,2.05
2023-02-19T12:33:34.204Z,1.33
2023-02-19T12:36:12.973Z,1.75
2023-02-19T12:39:18.017Z,1.48
2023-02-19T12:42:27.248Z,1.83
2023-02-19T12:45:02.634Z,1.45
2023-02-19T12:47:35.168Z,1.98
2023-02-19T12:50:20.415Z,1.40
2023-02-19T12:52:52.149Z,1.70
2023-02-19T12:55:29.712Z,1.55
2023-02-19T12:57:58.781Z,1.10
2023-02-19T13:00:39.524Z,1.20
2023-02-19T13:03:28.805Z,1.63
2023-02-19T13:06:14.144Z,1.40
2023-02-19T13:09:05.253Z,1.55
2023-02-19T13:11:47.481Z,1.75
2023-02-19T13:14:43.398Z,1.80
2023-02-19T13:17:30.814Z,1.85
2023-02-19T13:20:09.481Z,2.00
2023-02-19T13:23:03.272Z,1.52
2023-02-19T13:25:58.578Z,2.10
2023-02-19T13:28:33.444Z,1.80
2023-02-19T13:31:24.927Z,2.58
2023-02-19T13:34:01.387Z,2.33
2023-02-19T13:36:30.130Z,1.90
2023-02-19T13:38:59.463Z,1.40
2023-02-19T13:41:39.911Z,1.65
2023-02-19T13:44:14.910Z,1.58
2023-02-19T13:46:46.956Z,1.40
2023-02-19T13:49:31.893Z,1.58
2023-02-19T13:52:04.251Z,1.20
2023-02-19T13:54:33.633Z,2.05
2023-02-19T13:57:19.661Z,1.73
2023-02-19T13:59:48.236Z,2.10
2023-02-19T14:02:35.465Z,2.28
2023-02-19T14:05:10.238Z,2.60
2023-02-19T14:07:59.051Z,2.63
2023-02-19T14:11:02.709Z,2.00
2023-02-19T14:13:51.547Z,2.50
2023-02-19T14:16:51.425Z,2.30
2023-02-19T14:19:42.916Z,1.80
2023-02-19T14:22:55.337Z,1.42
2023-02-19T14:25:30.614Z,1.83
2023-02-19T14:28:24.148Z,1.52
2023-02-19T14:30:54.413Z,1.83
2023-02-19T14:33:32.821Z,1.40
2023-02-19T14:36:21.454Z,1.25
2023-02-19T14:38:53.416Z,2.22
2023-02-19T14:41:23.399Z,1.90
2023-02-19T14:43:53.471Z,1.23
2023-02-19T14:46:27.947Z,1.38
2023-02-19T14:48:56.826Z,1.65
2023-02-19T14:51:44.132Z,1.70
2023-02-19T14:54:16.773Z,1.48
2023-02-19T14:56:47.037Z,1.25
2023-02-19T14:59:13.661Z,1.35
2023-02-19T15:01:41.250Z,2.00
2023-02-19T15:04:25.742Z,1.45
2023-02-19T15:06:57.236Z,1.45
2023-02-19T15:09:32.825Z,2.00
2023-02-19T15:12:02.702Z,1.40
2023-02-19T15:14:30.980Z,1.65
2023-02-19T15:17:01.183Z,1.70
2023-02-19T15:19:29.343Z,2.20
2023-02-19T15:21:56.219Z,1.88
2023-02-19T15:24:23.219Z,2.72
2023-02-19T15:26:54.044Z,1.80
2023-02-19T15:29:24.282Z,1.40
2023-02-19T15:31:55.604Z,1.40
2023-02-19T15:34:26.697Z,1.60
2023-02-19T15:37:00.987Z,1.58
2023-02-19T15:39:37.895Z,1.90
2023-02-19T15:42:06.753Z,1.45
2023-02-19T15:44:58.175Z,1.33
2023-02-19T15:47:37.248Z,1.80
2023-02-19T15:50:17.153Z,1.60
2023-02-19T15:53:01.237Z,1.30
2023-02-19T15:55:45.239Z,1.55
2023-02-19T15:58:21.016Z,1.70
2023-02-19T16:00:56.574Z,1.60
2023-02-19T16:03:25.548Z,1.98
2023-02-19T16:06:22.978Z,1.77
2023-02-19T16:08:52.663Z,2.50
2023-02-19T16:11:22.215Z,1.65
2023-02-19T16:13:50.248Z,1.80
2023-02-19T16:16:32.705Z,2.13
2023-02-19T16:18:59.601Z,2.20
2023-02-19T16:21:27.660Z,2.28
2023-02-19T16:24:03.711Z,2.15
2023-02-19T16:26:39.076Z,1.80
2023-02-19T16:29:33.402Z,3.03
2023-02-19T16:32:16.933Z,2.38
2023-02-19T16:34:46.789Z,2.50
2023-02-19T16:37:31.793Z,2.28
2023-02-19T16:40:07.714Z,2.22
2023-02-19T16:42:36.755Z,2.25
2023-02-19T16:45:03.847Z,2.28
2023-02-19T16:47:37.083Z,2.30
2023-02-19T16:50:11.025Z,2.78
2023-02-19T16:52:39.173Z,2.75
2023-02-19T16:55:13.161Z,2.58
2023-02-19T16:57:39.939Z,2.45
2023-02-19T17:00:07.004Z,2.28
2023-02-19T17:02:33.862Z,3.13
2023-02-19T17:05:00.812Z,3.55
2023-02-19T17:07:27.637Z,4.78
2023-02-19T17:09:54.272Z,4.10
2023-02-19T17:12:22.051Z,3.92
2023-02-19T17:14:48.687Z,3.50
2023-02-19T17:17:15.505Z,3.58
2023-02-19T17:19:42.164Z,3.90
2023-02-19T17:22:09.293Z,4.00
2023-02-19T17:24:36.038Z,3.40
2023-02-19T17:27:03.081Z,3.22
2023-02-19T17:29:33.827Z,3.47
2023-02-19T17:32:00.666Z,3.42
2023-02-19T17:34:27.411Z,3.05
2023-02-19T17:36:58.789Z,2.63
2023-02-19T17:39:25.792Z,2.80
2023-02-19T17:41:52.707Z,2.35
2023-02-19T17:44:20.192Z,2.67
2023-02-19T17:46:48.519Z,2.38
2023-02-19T17:49:19.874Z,2.35
2023-02-19T17:51:47.662Z,2.40
2023-02-19T17:54:15.250Z,2.08
2023-02-19T17:56:43.364Z,2.28
2023-02-19T17:59:10.916Z,2.10
2023-02-19T18:01:38.028Z,2.33
2023-02-19T18:04:05.133Z,2.20
2023-02-19T18:06:32.194Z,2.00
2023-02-19T18:08:58.900Z,3.10
2023-02-19T18:11:25.570Z,3.25
2023-02-19T18:13:52.300Z,3.75
2023-02-19T18:16:19.682Z,3.60
2023-02-19T18:18:46.383Z,4.60
2023-02-19T18:21:14.006Z,4.70
2023-02-19T18:23:41.180Z,4.45
2023-02-19T18:26:10.304Z,4.38
2023-02-19T18:28:38.052Z,4.03
2023-02-19T18:31:05.191Z,3.63
2023-02-19T18:33:33.425Z,3.28
2023-02-19T18:36:00.117Z,3.85
2023-02-19T18:38:26.871Z,4.88
2023-02-19T18:40:53.546Z,5.15
2023-02-19T18:43:20.295Z,5.40
2023-02-19T18:45:47.159Z,5.25
2023-02-19T18:48:13.995Z,5.45
2023-02-19T18:50:40.680Z,6.97
2023-02-19T18:53:07.353Z,5.78
2023-02-19T18:55:34.015Z,5.43
2023-02-19T18:58:00.760Z,5.15
2023-02-19T19:00:27.450Z,4.57
2023-02-19T19:03:00.396Z,5.53
2023-02-19T19:05:27.479Z,7.18
2023-02-19T19:07:56.547Z,5.85
2023-02-19T19:10:23.749Z,6.68
2023-02-19T19:12:50.766Z,6.93
2023-02-19T19:15:18.734Z,6.38
2023-02-19T19:17:46.789Z,6.57
2023-02-19T19:20:18.535Z,7.30
2023-02-19T19:22:45.550Z,7.30
2023-02-19T19:25:12.326Z,7.13
2023-02-19T19:27:39.087Z,7.30
2023-02-19T19:30:06.658Z,7.70
2023-02-19T19:32:33.364Z,6.57
2023-02-19T19:35:00.148Z,6.72
2023-02-19T19:37:28.787Z,8.68
2023-02-19T19:39:56.292Z,10.63
2023-02-19T19:42:24.419Z,8.00
2023-02-19T19:44:51.193Z,7.05
2023-02-19T19:47:18.092Z,6.65
2023-02-19T19:49:47.553Z,6.75
2023-02-19T19:52:15.112Z,7.13
2023-02-19T19:54:43.097Z,7.10
2023-02-19T19:57:10.824Z,7.13
2023-02-19T19:59:39.132Z,8.05
2023-02-19T20:02:07.134Z,8.93
2023-02-19T20:04:33.832Z,9.13
2023-02-19T20:07:00.685Z,7.82
2023-02-19T20:09:29.436Z,7.68
2023-02-19T20:11:56.730Z,10.30
2023-02-19T20:14:24.732Z,15.80
2023-02-19T20:16:51.756Z,12.35
2023-02-19T20:19:20.207Z,9.80
2023-02-19T20:21:48.188Z,9.05
2023-02-19T20:24:28.467Z,9.10
2023-02-19T20:27:00.181Z,8.35
2023-02-19T20:29:29.404Z,8.18
2023-02-19T20:31:59.853Z,8.63
2023-02-19T20:34:26.850Z,10.48
2023-02-19T20:36:53.872Z,9.57
2023-02-19T20:39:21.916Z,9.07
2023-02-19T20:41:51.118Z,8.90
2023-02-19T20:44:18.518Z,8.70
2023-02-19T20:46:47.255Z,12.85
2023-02-19T20:49:15.570Z,12.00
2023-02-19T20:51:44.654Z,15.55
2023-02-19T20:54:11.601Z,13.38
2023-02-19T20:56:43.566Z,11.25
2023-02-19T20:59:10.222Z,8.73
2023-02-19T21:01:37.041Z,9.45
2023-02-19T21:04:03.827Z,10.82
2023-02-19T21:06:30.651Z,10.68
2023-02-19T21:08:57.298Z,9.65
2023-02-19T21:11:24.104Z,11.63
2023-02-19T21:13:51.021Z,10.80
2023-02-19T21:16:18.188Z,11.07
2023-02-19T21:18:44.890Z,10.95
2023-02-19T21:21:11.578Z,9.75
2023-02-19T21:23:38.291Z,11.07
2023-02-19T21:26:05.413Z,10.35
2023-02-19T21:28:32.065Z,9.98
2023-02-19T21:30:58.731Z,8.27
2023-02-19T21:33:25.394Z,10.23
2023-02-19T21:35:52.107Z,9.57
2023-02-19T21:38:18.797Z,9.52
2023-02-19T21:40:45.426Z,9.48
2023-02-19T21:43:12.770Z,7.60
2023-02-19T21:45:39.515Z,7.55
2023-02-19T21:48:08.554Z,5.38
2023-02-19T21:50:35.258Z,3.13
2023-02-19T21:53:01.998Z,3.42
2023-02-19T21:55:28.912Z,3.30
2023-02-19T21:57:55.602Z,3.05
2023-02-19T22:00:22.503Z,2.05
2023-02-19T22:02:49.342Z,1.85
2023-02-19T22:05:16.534Z,1.80
2023-02-19T22:07:43.307Z,1.83
2023-02-19T22:10:10.528Z,1.70
2023-02-19T22:12:37.216Z,1.67
2023-02-19T22:15:04.201Z,1.27
2023-02-19T22:17:30.924Z,1.30
2023-02-19T22:19:57.650Z,1.15
2023-02-19T22:22:24.334Z,1.00
2023-02-19T22:24:50.997Z,1.35
2023-02-19T22:27:17.754Z,1.30
2023-02-19T22:29:44.485Z,1.10
2023-02-19T22:32:11.317Z,1.02
2023-02-19T22:34:40.421Z,1.38
2023-02-19T22:37:07.501Z,1.48
2023-02-19T22:39:34.161Z,1.45
2023-02-19T22:42:01.276Z,1.38
2023-02-19T22:44:28.034Z,1.45
2023-02-19T22:46:56.260Z,1.60
2023-02-19T22:49:24.082Z,1.80
2023-02-19T22:51:57.653Z,2.05
2023-02-19T22:54:26.978Z,1.73
2023-02-19T22:56:54.546Z,2.10
2023-02-19T22:59:21.744Z,2.00
2023-02-19T23:01:49.806Z,2.67
2023-02-19T23:04:17.058Z,2.15
2023-02-19T23:06:45.398Z,2.55
2023-02-19T23:09:18.588Z,2.30
2023-02-19T23:11:45.731Z,2.00
2023-02-19T23:14:13.244Z,2.50
2023-02-19T23:16:39.998Z,2.42
2023-02-19T23:19:09.456Z,2.67
2023-02-19T23:21:36.155Z,2.67
2023-02-19T23:24:02.937Z,2.80
2023-02-19T23:26:29.680Z,2.97
2023-02-19T23:28:56.558Z,2.80
2023-02-19T23:31:23.795Z,3.47
2023-02-19T23:33:50.674Z,3.10
2023-02-19T23:36:17.355Z,3.10
2023-02-19T23:38:45.707Z,2.95
2023-02-19T23:41:14.102Z,3.13
2023-02-19T23:43:40.898Z,2.78
2023-02-19T23:46:07.942Z,3.10
2023-02-19T23:48:35.120Z,3.22
2023-02-19T23:51:01.801Z,3.10
2023-02-19T23:53:28.481Z,4.13
2023-02-19T23:55:55.306Z,3.13
2023-02-19T23:58:21.961Z,3.53
